Time;durP1;ratioP1;P1;durP2;ratioP2;P2;SDS_P1;SDS_P2;PMS_P1;PMS_P2;Temp;Humidity;BMP_temperature;BMP_pressure;BME280_temperature;BME280_humidity;BME280_pressure;Samples;Min_cycle;Max_cycle;Signal;HPM_P1;HPM_P2
2022/04/27 00:00:58;;;;;;;7.30;1.50;;;;;;;14.01;66.94;99172.11;25116;1316;3026359;-66
2022/04/27 00:03:30;;;;;;;4.40;1.50;;;;;;;13.76;67.62;99168.73;25142;1315;3026805;-66
2022/04/27 00:06:03;;;;;;;4.50;1.70;;;;;;;13.65;68.14;99178.81;25111;1315;3029588;-65
2022/04/27 00:08:38;;;;;;;3.90;1.50;;;;;;;13.56;68.34;99179.66;25099;1315;3026417;-67
2022/04/27 00:11:09;;;;;;;5.60;2.10;;;;;;;13.49;68.51;99180.70;25124;1315;3055648;-65
2022/04/27 00:13:40;;;;;;;6.90;1.40;;;;;;;13.39;69.27;99189.17;25098;1315;3028239;-66
2022/04/27 00:16:10;;;;;;;3.20;1.40;;;;;;;13.82;68.32;99179.55;25110;1315;3026964;-66
2022/04/27 00:18:42;;;;;;;6.50;1.80;;;;;;;14.07;67.31;99175.31;25096;1315;3027735;-67
2022/04/27 00:21:13;;;;;;;5.90;1.90;;;;;;;14.03;67.30;99184.77;25123;1315;3027276;-66
2022/04/27 00:23:44;;;;;;;3.30;1.80;;;;;;;13.83;67.66;99186.71;25101;1316;3027703;-68
2022/04/27 00:26:17;;;;;;;2.40;1.60;;;;;;;13.64;68.20;99181.48;25082;1315;3056189;-66
2022/04/27 00:28:48;;;;;;;9.70;1.80;;;;;;;13.53;68.33;99187.66;25137;1316;3027479;-66
2022/04/27 00:31:24;;;;;;;4.00;2.20;;;;;;;13.33;69.15;99187.54;25077;1315;3052276;-67
2022/04/27 00:34:00;;;;;;;3.50;1.70;;;;;;;13.19;70.03;99194.06;25019;1318;3054155;-67
2022/04/27 00:36:31;;;;;;;3.30;1.70;;;;;;;13.79;68.71;99188.45;25074;1316;3069237;-64
2022/04/27 00:39:04;;;;;;;5.00;2.00;;;;;;;13.94;67.40;99190.58;25115;1316;3026848;-67
2022/04/27 00:41:38;;;;;;;6.00;2.00;;;;;;;13.82;67.21;99192.08;25162;1316;3050879;-66
2022/04/27 00:44:10;;;;;;;7.10;2.10;;;;;;;13.71;67.30;99192.19;25126;1316;3054276;-66
2022/04/27 00:46:40;;;;;;;4.70;2.10;;;;;;;13.59;67.29;99201.40;25171;1316;3031715;-66
2022/04/27 00:49:12;;;;;;;5.30;1.90;;;;;;;13.35;68.14;99203.75;25532;1315;3026393;-67
2022/04/27 00:51:42;;;;;;;3.10;1.70;;;;;;;13.21;68.44;99207.23;25518;1315;3027044;-67
2022/04/27 00:54:18;;;;;;;4.00;2.20;;;;;;;13.07;68.92;99201.29;25335;1316;3051691;-67
2022/04/27 00:56:52;;;;;;;5.30;2.00;;;;;;;13.08;68.69;99204.17;25091;1315;3026672;-66
2022/04/27 00:59:23;;;;;;;;;;;;;;;13.02;68.87;99206.80;25144;1315;3050736;-67
2022/04/27 01:01:52;;;;;;;2.90;1.50;;;;;;;13.57;67.48;99205.45;25163;1316;3026006;-66
2022/04/27 01:04:27;;;;;;;4.10;2.10;;;;;;;13.80;66.38;99210.36;25115;1316;3027388;-67
2022/04/27 01:06:58;;;;;;;7.40;1.90;;;;;;;13.55;67.05;99215.09;25101;1315;3026358;-68
2022/04/27 01:09:30;;;;;;;9.40;2.50;;;;;;;13.38;67.66;99213.73;25056;1316;3049486;-67
2022/04/27 01:12:09;;;;;;;8.70;2.50;;;;;;;13.19;68.23;99203.73;25046;1316;3055933;-67
2022/04/27 01:14:56;;;;;;;4.90;2.50;;;;;;;13.07;68.53;99200.02;25132;1315;3051867;-67
2022/04/27 01:17:25;;;;;;;8.10;2.80;;;;;;;12.96;69.23;99208.05;25056;1315;3071676;-66
2022/04/27 01:19:56;;;;;;;5.10;2.40;;;;;;;12.86;69.23;99203.52;25041;1319;3027170;-66
2022/04/27 01:22:30;;;;;;;4.20;2.60;;;;;;;12.78;70.27;99211.88;25135;1316;3054787;-66
2022/04/27 01:25:01;;;;;;;4.40;2.30;;;;;;;13.15;69.69;99208.90;25103;1315;3026905;-65
2022/04/27 01:27:44;;;;;;;6.60;3.20;;;;;;;13.36;68.66;99215.30;25136;1316;3055650;-65
2022/04/27 01:30:15;;;;;;;4.20;3.10;;;;;;;13.23;68.88;99209.09;25057;1316;3050575;-65
2022/04/27 01:32:48;;;;;;;5.50;3.20;;;;;;;13.01;69.42;99213.45;25107;1316;3028541;-65
2022/04/27 01:35:18;;;;;;;6.10;3.20;;;;;;;12.85;69.80;99214.50;25126;1316;3026641;-66
2022/04/27 01:38:03;;;;;;;5.60;2.90;;;;;;;12.71;70.50;99223.27;25146;1316;3027417;-66
2022/04/27 01:40:34;;;;;;;3.90;2.20;;;;;;;12.51;71.60;99235.98;25110;1315;3051712;-65
2022/04/27 01:43:05;;;;;;;5.60;2.80;;;;;;;12.94;70.37;99231.25;25154;1316;3026617;-65
2022/04/27 01:45:36;;;;;;;4.80;2.60;;;;;;;13.19;69.40;99230.10;25095;1316;3026374;-65
2022/04/27 01:48:06;;;;;;;6.30;3.20;;;;;;;13.03;69.65;99233.61;25115;1316;3026984;-66
2022/04/27 01:50:38;;;;;;;4.80;2.60;;;;;;;12.88;70.08;99223.92;25111;1315;3026583;-65
2022/04/27 01:56:00;;;;;;;6.00;3.40;;;;;;;12.28;72.49;99224.95;25146;1316;3052256;-66
2022/04/27 01:58:32;;;;;;;3.90;2.70;;;;;;;12.26;72.97;99229.29;25118;1316;3026487;-66
2022/04/27 02:01:03;;;;;;;8.50;2.60;;;;;;;12.63;72.35;99235.61;25130;1315;3026632;-66
2022/04/27 02:03:37;;;;;;;5.00;3.00;;;;;;;12.77;71.56;99232.34;25046;1318;3027792;-66
2022/04/27 02:06:08;;;;;;;4.30;3.00;;;;;;;12.67;71.70;99226.73;25112;1316;3026939;-65
2022/04/27 02:08:46;;;;;;;7.70;3.60;;;;;;;12.28;73.59;99230.09;25095;1316;3059496;-67
2022/04/27 02:11:16;;;;;;;10.00;3.90;;;;;;;12.07;74.46;99233.13;25135;1316;3027204;-66
2022/04/27 02:14:06;;;;;;;5.50;3.10;;;;;;;11.97;74.72;99237.30;25141;1316;3053594;-67
2022/04/27 02:16:38;;;;;;;3.30;2.70;;;;;;;11.92;75.60;99242.92;25099;1315;3026559;-69
2022/04/27 02:19:08;;;;;;;5.80;3.20;;;;;;;12.31;74.76;99235.33;25125;1316;3026391;-66
2022/04/27 02:21:41;;;;;;;6.10;3.00;;;;;;;12.34;74.39;99243.29;25108;1316;3052035;-65
2022/04/27 02:24:12;;;;;;;3.80;3.10;;;;;;;12.16;75.08;99241.11;25091;1316;3026769;-65
2022/04/27 02:26:42;;;;;;;5.30;3.80;;;;;;;11.97;75.84;99243.23;25113;1315;3026589;-67
2022/04/27 02:29:16;;;;;;;5.70;4.10;;;;;;;11.80;76.53;99255.48;25146;1316;3029032;-66
2022/04/27 02:31:47;;;;;;;7.30;3.20;;;;;;;11.80;76.86;99252.48;25087;1318;3026604;-67
2022/04/27 02:34:18;;;;;;;5.90;3.40;;;;;;;12.09;76.30;99243.98;25148;1316;3026285;-67
2022/04/27 02:36:47;;;;;;;8.80;4.00;;;;;;;12.10;75.99;99251.13;25094;1316;3026425;-66
2022/04/27 02:39:18;;;;;;;5.90;4.00;;;;;;;11.98;76.45;99256.73;25087;1316;3026862;-65
2022/04/27 02:41:49;;;;;;;6.40;4.00;;;;;;;11.83;77.04;99261.27;25169;1316;3027016;-67
2022/04/27 02:44:21;;;;;;;5.60;3.60;;;;;;;11.74;77.46;99260.27;25098;1315;3029636;-66
2022/04/27 02:46:52;;;;;;;5.60;3.50;;;;;;;12.16;76.66;99260.05;25132;1315;3053789;-66
2022/04/27 02:52:11;;;;;;;10.80;4.80;;;;;;;12.10;76.27;99273.30;25146;1316;3052292;-67
2022/04/27 02:55:00;;;;;;;10.00;5.00;;;;;;;11.80;77.42;99271.60;25080;1316;3056117;-66
2022/04/27 02:57:33;;;;;;;6.70;4.10;;;;;;;11.73;77.87;99271.23;25126;1315;3026595;-66
2022/04/27 03:00:04;;;;;;;7.90;4.70;;;;;;;12.09;77.11;99272.64;25163;1316;3026640;-66
2022/04/27 03:02:36;;;;;;;10.40;5.60;;;;;;;12.25;76.07;99278.02;25114;1316;3026856;-67
2022/04/27 03:05:06;;;;;;;9.10;5.70;;;;;;;12.09;76.48;99284.39;25117;1316;3026713;-65
2022/04/27 03:07:40;;;;;;;9.70;6.80;;;;;;;11.84;77.64;99281.55;25110;1315;3052118;-65
2022/04/27 03:10:10;;;;;;;7.30;5.60;;;;;;;11.73;77.88;99287.40;25161;1316;3026602;-65
2022/04/27 03:12:39;;;;;;;9.00;5.50;;;;;;;11.74;78.08;99284.83;25116;1318;3026531;-65
2022/04/27 03:15:13;;;;;;;9.30;5.50;;;;;;;12.08;77.35;99286.38;25143;1316;3052453;-66
2022/04/27 03:17:43;;;;;;;9.10;6.10;;;;;;;12.10;76.81;99288.01;25111;1315;3026528;-65
2022/04/27 03:20:12;;;;;;;10.30;6.90;;;;;;;11.98;77.20;99287.93;25132;1316;3051833;-66
2022/04/27 03:23:02;;;;;;;10.40;6.00;;;;;;;11.74;77.99;99290.27;25140;1316;3052623;-68
2022/04/27 03:25:33;;;;;;;17.60;9.30;;;;;;;11.80;77.61;99292.48;25120;1316;3026647;-66
2022/04/27 03:28:04;;;;;;;14.20;8.80;;;;;;;12.05;77.65;99295.42;25125;1315;3026568;-66
2022/04/27 03:30:35;;;;;;;16.60;9.00;;;;;;;12.33;76.22;99298.73;25130;1316;3026960;-65
2022/04/27 03:33:07;;;;;;;14.60;8.60;;;;;;;12.15;76.63;99307.88;25128;1316;3027014;-67
2022/04/27 03:35:37;;;;;;;14.90;8.60;;;;;;;12.02;76.99;99312.59;25104;1316;3026550;-63
2022/04/27 03:38:08;;;;;;;9.90;7.30;;;;;;;11.92;77.06;99319.95;25095;1316;3026915;-66
2022/04/27 03:40:38;;;;;;;7.90;5.30;;;;;;;11.85;77.66;99317.97;25147;1315;3026341;-65
2022/04/27 03:43:08;;;;;;;8.50;6.20;;;;;;;12.30;76.75;99316.66;25110;1316;3026078;-66
2022/04/27 03:45:38;;;;;;;9.30;6.70;;;;;;;12.50;75.74;99316.14;25178;1315;3027278;-65
2022/04/27 03:48:09;;;;;;;11.90;7.60;;;;;;;12.37;75.70;99322.52;25089;1316;3026269;-66
2022/04/27 03:50:40;;;;;;;9.20;7.20;;;;;;;12.29;76.04;99327.83;25071;1315;3026502;-66
2022/04/27 03:53:11;;;;;;;10.60;6.90;;;;;;;12.02;76.82;99327.89;25106;1316;3054919;-65
2022/04/27 03:55:40;;;;;;;7.50;5.20;;;;;;;12.03;77.22;99328.03;25098;1316;3026918;-66
2022/04/27 03:58:10;;;;;;;9.10;6.00;;;;;;;12.56;75.74;99330.27;25153;1316;3052071;-65
2022/04/27 04:00:40;;;;;;;21.20;12.10;;;;;;;12.84;74.29;99337.45;25143;1316;3027320;-67
2022/04/27 04:03:19;;;;;;;12.20;8.60;;;;;;;12.71;74.43;99331.67;25115;1316;3050812;-66
2022/04/27 04:05:48;;;;;;;16.10;9.90;;;;;;;12.47;74.96;99334.61;25135;1316;3026261;-65
2022/04/27 04:08:22;;;;;;;17.90;10.80;;;;;;;12.12;76.39;99351.75;25143;1316;3053835;-67
2022/04/27 04:10:53;;;;;;;41.30;17.90;;;;;;;12.04;76.81;99348.30;25122;1315;3027159;-66
2022/04/27 04:13:25;;;;;;;26.00;12.20;;;;;;;12.03;77.13;99353.76;25116;1316;3030139;-66
2022/04/27 04:16:02;;;;;;;24.80;13.10;;;;;;;12.53;75.49;99357.38;25148;1316;3051693;-65
2022/04/27 04:18:53;;;;;;;26.70;15.50;;;;;;;12.82;74.05;99359.71;25148;1316;3053030;-65
2022/04/27 04:21:41;;;;;;;20.30;13.70;;;;;;;12.62;74.37;99364.48;25130;1316;3059109;-66
2022/04/27 04:24:17;;;;;;;23.20;13.60;;;;;;;12.55;74.44;99366.53;25098;1316;3052458;-67
2022/04/27 04:29:47;;;;;;;14.70;9.80;;;;;;;12.23;76.01;99367.40;25111;1316;3054480;-64
2022/04/27 04:32:16;;;;;;;15.30;10.90;;;;;;;12.70;74.73;99368.88;25125;1316;3026475;-65
2022/04/27 04:35:05;;;;;;;26.90;16.30;;;;;;;13.09;72.91;99374.85;25126;1319;3052533;-65
2022/04/27 04:37:34;;;;;;;30.20;17.40;;;;;;;12.94;72.96;99376.98;25112;1315;3030055;-66
2022/04/27 04:40:05;;;;;;;24.70;17.00;;;;;;;12.61;73.91;99381.08;25119;1315;3026778;-67
2022/04/27 04:42:35;;;;;;;23.70;17.60;;;;;;;12.48;74.46;99388.79;25086;1315;3027035;-66
2022/04/27 04:45:08;;;;;;;22.40;13.50;;;;;;;12.20;75.23;99392.83;25146;1316;3026624;-66
2022/04/27 04:47:56;;;;;;;14.90;8.60;;;;;;;12.00;76.77;99394.73;25173;1315;3055254;-67
2022/04/27 04:50:48;;;;;;;15.70;9.30;;;;;;;12.62;74.71;99391.70;25161;1316;3056076;-66
2022/04/27 04:53:43;;;;;;;13.20;8.60;;;;;;;12.93;72.96;99396.23;25123;1316;3053336;-66
2022/04/27 04:56:13;;;;;;;14.30;9.40;;;;;;;12.69;73.60;99397.36;25117;1316;3026693;-65
2022/04/27 04:58:54;;;;;;;15.50;9.80;;;;;;;12.60;74.06;99401.52;25126;1316;3054438;-67
2022/04/27 05:02:01;;;;;;;15.00;9.80;;;;;;;12.47;74.44;99406.33;25007;1319;3070286;-65
2022/04/27 05:04:50;;;;;;;10.00;7.40;;;;;;;12.39;74.87;99408.05;25135;1316;3052482;-67
2022/04/27 05:07:48;;;;;;;14.20;8.10;;;;;;;12.99;73.55;99409.28;25110;1316;3055361;-67
2022/04/27 05:10:49;;;;;;;13.40;9.00;;;;;;;13.34;71.60;99422.11;25094;1316;3052829;-66
2022/04/27 05:13:39;;;;;;;15.60;8.60;;;;;;;13.11;72.17;99423.42;25127;1316;3058793;-65
2022/04/27 05:16:32;;;;;;;14.80;9.00;;;;;;;12.80;73.00;99433.87;25191;1316;3049290;-67
2022/04/27 05:19:16;;;;;;;12.10;7.20;;;;;;;12.41;74.47;99438.44;25508;1316;3054110;-66
2022/04/27 05:22:04;;;;;;;9.90;5.10;;;;;;;12.21;75.69;99434.61;25524;1316;3054358;-66
2022/04/27 05:24:55;;;;;;;9.50;5.10;;;;;;;12.98;73.57;99439.63;25232;1316;3069562;-67
2022/04/27 05:27:46;;;;;;;10.40;6.10;;;;;;;13.17;72.22;99447.44;25158;1315;3051824;-68
2022/04/27 05:33:48;;;;;;;12.70;6.10;;;;;;;12.74;73.16;99449.77;25152;1316;3053405;-65
2022/04/27 05:36:38;;;;;;;14.90;6.80;;;;;;;12.65;73.43;99454.62;25140;1316;3058759;-64
2022/04/27 05:39:13;;;;;;;6.70;5.00;;;;;;;12.58;73.84;99450.99;25115;1316;3052282;-65
2022/04/27 05:42:06;;;;;;;13.60;7.20;;;;;;;13.12;72.29;99455.36;25169;1316;3055894;-68
2022/04/27 05:45:01;;;;;;;11.80;7.00;;;;;;;13.38;71.33;99457.56;25136;1315;3052187;-67
2022/04/27 05:48:12;;;;;;;11.90;6.30;;;;;;;13.06;71.84;99454.33;24950;1321;3071267;-68
2022/04/27 05:50:47;;;;;;;17.80;10.60;;;;;;;12.84;72.47;99457.14;24978;1321;3049129;-66
2022/04/27 05:53:31;;;;;;;;;;;;;;;12.62;73.05;99453.20;25096;1316;3054008;-67
2022/04/27 05:56:08;;;;;;;17.30;10.10;;;;;;;12.63;73.10;99458.07;25097;1315;3054794;-66
2022/04/27 05:59:08;;;;;;;17.00;8.50;;;;;;;12.51;74.16;99464.21;24983;1318;3058872;-66
2022/04/27 06:01:55;;;;;;;10.30;7.00;;;;;;;13.17;71.97;99462.57;25106;1316;3052388;-66
2022/04/27 06:04:26;;;;;;;17.50;8.00;;;;;;;13.56;70.59;99462.27;25129;1315;3026707;-66
2022/04/27 06:06:57;;;;;;;12.00;7.50;;;;;;;13.58;70.10;99461.06;25142;1316;3025977;-66
2022/04/27 06:09:28;;;;;;;15.90;7.80;;;;;;;13.53;70.03;99464.70;25079;1315;3031144;-67
2022/04/27 06:12:12;;;;;;;;;;;;;;;13.30;70.23;99465.68;25163;1316;3049064;-66
2022/04/27 06:14:47;;;;;;;12.90;7.10;;;;;;;12.98;71.26;99469.22;25161;1316;3052604;-66
2022/04/27 06:17:32;;;;;;;8.00;5.20;;;;;;;13.27;70.11;99469.56;25104;1316;3054799;-66
2022/04/27 06:20:05;;;;;;;10.30;4.70;;;;;;;13.38;69.86;99471.79;25124;1315;3058740;-66
2022/04/27 06:22:34;;;;;;;7.80;4.80;;;;;;;14.10;67.76;99477.25;25120;1316;3026884;-66
2022/04/27 06:25:04;;;;;;;6.90;4.80;;;;;;;14.29;66.21;99480.23;25112;1316;3026162;-66
2022/04/27 06:27:44;;;;;;;7.60;4.20;;;;;;;14.21;66.01;99490.07;25155;1315;3054092;-66
2022/04/27 06:30:14;;;;;;;7.60;5.30;;;;;;;14.07;65.97;99490.91;25138;1316;3026547;-67
2022/04/27 06:32:44;;;;;;;14.60;6.00;;;;;;;13.93;66.38;99501.81;25114;1315;3052598;-66
2022/04/27 06:35:14;;;;;;;9.20;5.70;;;;;;;13.68;67.28;99497.66;25139;1315;3026586;-67
2022/04/27 06:37:44;;;;;;;8.50;4.50;;;;;;;13.63;67.35;99502.73;25132;1316;3026419;-66
2022/04/27 06:40:14;;;;;;;6.30;4.70;;;;;;;13.35;67.16;99504.39;25170;1316;3026920;-65
2022/04/27 06:42:44;;;;;;;6.30;4.40;;;;;;;13.42;67.52;99507.27;25108;1315;3027700;-66
2022/04/27 06:45:32;;;;;;;9.70;4.50;;;;;;;13.57;66.42;99511.23;25159;1315;3070430;-64
2022/04/27 06:48:21;;;;;;;9.90;4.40;;;;;;;13.47;66.87;99506.71;25124;1316;3049069;-65
2022/04/27 06:51:29;;;;;;;8.90;4.50;;;;;;;13.62;66.80;99506.71;24952;1322;3054876;-63
2022/04/27 06:54:17;;;;;;;5.10;3.40;;;;;;;13.42;67.27;99514.79;24968;1321;3052484;-66
2022/04/27 06:57:04;;;;;;;7.10;4.60;;;;;;;14.17;65.14;99512.89;25033;1316;3056383;-64
2022/04/27 06:59:49;;;;;;;9.80;5.00;;;;;;;14.55;63.32;99509.19;25106;1315;3051557;-65
2022/04/27 07:02:21;;;;;;;12.50;5.20;;;;;;;14.48;63.29;99504.38;25156;1315;3029626;-64
2022/04/27 07:04:55;;;;;;;12.90;5.90;;;;;;;14.55;62.89;99504.91;25133;1316;3026985;-65
2022/04/27 07:07:24;;;;;;;10.80;4.90;;;;;;;14.27;63.62;99511.05;25135;1315;3071489;-63
2022/04/27 07:09:53;;;;;;;7.70;4.80;;;;;;;14.27;63.86;99508.77;25115;1316;3026640;-65
2022/04/27 07:12:24;;;;;;;8.90;4.90;;;;;;;14.35;63.22;99506.06;25134;1316;3052843;-64
2022/04/27 07:14:53;;;;;;;8.80;4.50;;;;;;;14.21;63.44;99509.95;25095;1316;3026403;-68
2022/04/27 07:17:22;;;;;;;9.10;4.10;;;;;;;14.36;62.97;99513.39;25153;1316;3028390;-64
2022/04/27 07:19:58;;;;;;;6.20;4.30;;;;;;;14.03;63.24;99518.48;25119;1315;3053562;-66
2022/04/27 07:22:28;;;;;;;8.10;3.80;;;;;;;13.89;63.19;99513.55;25165;1316;3028684;-66
2022/04/27 07:24:57;;;;;;;6.70;3.40;;;;;;;13.97;63.08;99506.80;25106;1316;3026421;-67
2022/04/27 07:27:27;;;;;;;5.00;3.40;;;;;;;14.18;62.30;99509.78;25173;1316;3052365;-67
2022/04/27 07:29:58;;;;;;;8.70;3.90;;;;;;;14.24;62.17;99509.36;25124;1316;3027201;-66
2022/04/27 07:32:27;;;;;;;6.80;4.10;;;;;;;14.38;62.12;99512.92;25124;1316;3026700;-66
2022/04/27 07:34:58;;;;;;;12.10;4.20;;;;;;;14.43;61.63;99511.98;25145;1315;3026774;-65
2022/04/27 07:37:27;;;;;;;14.00;5.60;;;;;;;14.33;61.92;99509.36;25117;1316;3026010;-65
2022/04/27 07:40:01;;;;;;;8.20;4.30;;;;;;;14.24;62.28;99514.48;25126;1316;3056898;-67
2022/04/27 07:42:30;;;;;;;6.50;4.60;;;;;;;14.37;62.44;99523.34;25142;1315;3027109;-66
2022/04/27 07:44:59;;;;;;;8.40;4.60;;;;;;;14.26;62.17;99519.06;25129;1315;3029231;-66
2022/04/27 07:47:37;;;;;;;8.50;3.70;;;;;;;14.34;61.63;99518.98;25138;1316;3056275;-65
2022/04/27 07:50:08;;;;;;;6.00;3.20;;;;;;;14.50;60.75;99509.70;25149;1315;3049378;-66
2022/04/27 07:52:38;;;;;;;8.60;3.40;;;;;;;14.56;60.26;99510.31;25140;1316;3029339;-69
2022/04/27 07:55:07;;;;;;;5.60;3.50;;;;;;;14.53;60.26;99517.91;25122;1316;3026102;-62
2022/04/27 07:57:37;;;;;;;6.30;3.70;;;;;;;14.49;60.35;99504.48;25163;1315;3051656;-65
2022/04/27 08:00:12;;;;;;;3.70;2.90;;;;;;;14.59;60.19;99501.83;25123;1316;3027272;-65
2022/04/27 08:02:42;;;;;;;6.30;3.30;;;;;;;14.82;59.25;99500.77;25085;1315;3052218;-67
2022/04/27 08:05:11;;;;;;;8.30;3.40;;;;;;;14.96;58.20;99503.55;25141;1316;3026348;-66
2022/04/27 08:07:46;;;;;;;11.70;2.80;;;;;;;14.85;58.54;99508.30;25190;1316;3026266;-64
2022/04/27 08:10:17;;;;;;;5.00;3.10;;;;;;;14.96;58.27;99506.19;25117;1316;3054441;-66
2022/04/27 08:12:47;;;;;;;9.90;3.40;;;;;;;15.05;58.17;99505.87;25123;1319;3026649;-62
2022/04/27 08:15:17;;;;;;;4.20;2.30;;;;;;;15.20;57.51;99507.80;25182;1316;3026530;-64
2022/04/27 08:18:08;;;;;;;4.20;2.30;;;;;;;15.20;56.83;99511.21;25166;1316;3027116;-66
2022/04/27 08:23:34;;;;;;;5.10;2.60;;;;;;;15.28;55.59;99506.16;25165;1316;3054099;-66
2022/04/27 08:26:05;;;;;;;3.90;2.50;;;;;;;15.69;54.80;99501.48;25120;1316;3026475;-65
2022/04/27 08:28:34;;;;;;;3.70;2.50;;;;;;;16.06;53.45;99509.63;25139;1316;3030168;-67
2022/04/27 08:31:03;;;;;;;5.50;2.60;;;;;;;16.05;53.37;99514.27;25165;1316;3053486;-64
2022/04/27 08:33:34;;;;;;;7.10;2.90;;;;;;;15.75;54.70;99524.23;25099;1316;3026702;-66
2022/04/27 08:36:03;;;;;;;5.40;3.60;;;;;;;15.64;55.63;99522.91;25164;1316;3027138;-67
2022/04/27 08:38:35;;;;;;;6.00;3.10;;;;;;;15.40;56.47;99532.52;25143;1316;3028257;-64
2022/04/27 08:41:04;;;;;;;4.90;3.40;;;;;;;15.18;57.30;99532.13;25122;1316;3026952;-67
2022/04/27 08:43:53;;;;;;;5.70;3.40;;;;;;;15.54;56.50;99531.83;25064;1316;3056443;-63
2022/04/27 08:46:24;;;;;;;5.70;3.50;;;;;;;15.72;55.54;99539.00;25149;1316;3026416;-68
2022/04/27 08:48:54;;;;;;;3.70;2.60;;;;;;;15.52;54.87;99544.14;25152;1316;3026928;-63
2022/04/27 08:51:22;;;;;;;5.40;2.60;;;;;;;15.54;54.35;99534.79;24789;1316;3535398;-64
2022/04/27 08:53:52;;;;;;;5.90;2.90;;;;;;;15.72;54.16;99526.44;25150;1316;3052050;-65
2022/04/27 08:56:23;;;;;;;9.50;3.70;;;;;;;16.09;53.64;99527.17;25094;1316;3026199;-66
2022/04/27 08:58:55;;;;;;;9.20;3.50;;;;;;;16.49;52.98;99519.31;25139;1316;3057572;-65
2022/04/27 09:01:24;;;;;;;4.00;2.70;;;;;;;16.45;52.04;99527.44;25132;1316;3026892;-66
2022/04/27 09:04:11;;;;;;;3.60;2.60;;;;;;;16.03;52.79;99532.59;25183;1316;3053273;-65
2022/04/27 09:06:49;;;;;;;4.50;2.50;;;;;;;16.41;52.50;99523.70;25115;1316;3058931;-67
2022/04/27 09:09:33;;;;;;;5.10;2.50;;;;;;;16.39;52.00;99522.08;25164;1316;3026514;-69
2022/04/27 09:12:08;;;;;;;6.60;2.50;;;;;;;16.19;53.03;99522.70;25147;1316;3055511;-65
2022/04/27 09:14:38;;;;;;;4.20;2.70;;;;;;;16.36;52.77;99520.55;25107;1316;3058602;-66
2022/04/27 09:23:06;;;;;;;5.50;2.80;;;;;;;15.66;54.14;99538.77;25145;1316;3059422;-63
2022/04/27 09:25:36;;;;;;;4.40;2.70;;;;;;;15.62;54.27;99533.95;25130;1316;3026069;-63
2022/04/27 09:28:06;;;;;;;3.20;2.30;;;;;;;16.02;53.42;99532.55;25165;1315;3026147;-66
2022/04/27 09:30:35;;;;;;;3.10;2.40;;;;;;;15.97;53.32;99532.80;25147;1316;3027246;-69
2022/04/27 09:33:05;;;;;;;5.50;2.20;;;;;;;15.92;53.09;99529.32;25120;1316;3026729;-64
2022/04/27 09:35:36;;;;;;;3.50;2.30;;;;;;;15.81;53.40;99527.14;25152;1315;3028572;-67
2022/04/27 09:38:18;;;;;;;3.30;2.20;;;;;;;15.91;52.94;99536.07;25107;1316;3049833;-66
2022/04/27 09:40:55;;;;;;;3.00;2.20;;;;;;;15.90;52.51;99528.58;25157;1316;3068225;-63
2022/04/27 09:43:46;;;;;;;6.10;2.20;;;;;;;15.93;53.04;99531.52;25161;1316;3050923;-64
2022/04/27 09:46:22;;;;;;;7.50;2.10;;;;;;;16.04;53.11;99533.28;25154;1316;3054623;-67
2022/04/27 09:49:04;;;;;;;3.00;2.50;;;;;;;15.99;53.07;99534.89;25113;1316;3053371;-67
2022/04/27 09:51:34;;;;;;;5.00;2.50;;;;;;;15.99;52.70;99529.91;25148;1316;3056812;-67
2022/04/27 09:54:06;;;;;;;4.90;2.30;;;;;;;16.57;51.68;99519.32;25168;1316;3026563;-65
2022/04/27 09:56:38;;;;;;;6.10;2.70;;;;;;;16.93;50.11;99524.41;25271;1315;3026506;-65
2022/04/27 09:59:10;;;;;;;5.60;2.10;;;;;;;17.02;49.38;99528.58;25257;1316;3050951;-67
2022/04/27 10:01:39;;;;;;;3.00;1.90;;;;;;;16.85;49.65;99525.26;25103;1316;3026712;-67
2022/04/27 10:04:10;;;;;;;5.20;1.80;;;;;;;16.47;50.60;99525.81;25109;1316;3027370;-68
2022/04/27 10:06:39;;;;;;;3.70;2.20;;;;;;;16.80;49.89;99519.45;25113;1316;3026713;-68
2022/04/27 10:09:09;;;;;;;2.30;1.90;;;;;;;16.92;49.39;99530.15;25080;1315;3028025;-69
2022/04/27 10:11:38;;;;;;;6.70;2.30;;;;;;;16.70;49.59;99530.55;25193;1316;3026098;-67
2022/04/27 10:15:17;;;;;;;5.20;2.60;;;;;;;16.76;49.27;99533.46;31427;1319;3027183;-67
2022/04/27 10:17:54;;;;;;;6.50;3.20;;;;;;;16.78;49.82;99537.67;25089;1319;3054974;-69
2022/04/27 10:20:27;;;;;;;3.90;2.60;;;;;;;16.94;49.30;99538.68;25073;1319;3027057;-68
2022/04/27 10:23:19;;;;;;;3.40;2.00;;;;;;;16.88;49.05;99541.14;25110;1316;3059407;-68
2022/04/27 10:26:17;;;;;;;6.40;2.00;;;;;;;16.80;48.95;99540.39;25145;1316;3051986;-67
2022/04/27 10:29:05;;;;;;;3.60;2.60;;;;;;;16.79;48.94;99541.66;24997;1316;3228274;-66
2022/04/27 10:31:42;;;;;;;6.00;2.70;;;;;;;16.64;49.61;99551.25;25114;1316;3052693;-66
2022/04/27 10:34:17;;;;;;;6.00;2.60;;;;;;;16.79;49.17;99550.89;25140;1313;3071299;-68
2022/04/27 10:36:57;;;;;;;8.10;2.10;;;;;;;16.47;47.43;99555.84;25114;1313;3026703;-68
2022/04/27 10:39:31;;;;;;;3.10;1.90;;;;;;;16.32;47.91;99553.20;25184;1313;3053894;-69
2022/04/27 10:42:02;;;;;;;5.10;2.90;;;;;;;16.46;48.42;99552.94;25178;1312;3054528;-66
2022/04/27 10:44:58;;;;;;;11.20;3.30;;;;;;;16.51;48.17;99553.41;25115;1314;3026999;-66
2022/04/27 10:47:35;;;;;;;7.10;3.20;;;;;;;16.94;47.23;99547.17;25121;1316;3055463;-67
2022/04/27 10:50:11;;;;;;;4.20;2.30;;;;;;;17.19;46.03;99545.40;25141;1313;3026140;-68
2022/04/27 10:52:51;;;;;;;4.80;2.50;;;;;;;17.30;45.35;99536.76;25130;1316;3057033;-68
2022/04/27 10:55:48;;;;;;;5.50;2.30;;;;;;;17.59;45.42;99541.86;25165;1313;3052530;-67
2022/04/27 10:58:23;;;;;;;5.50;2.00;;;;;;;17.53;45.41;99540.23;25122;1312;3053287;-67
2022/04/27 11:00:57;;;;;;;5.10;2.10;;;;;;;17.25;45.71;99550.16;25128;1316;3053323;-68
2022/04/27 11:03:38;;;;;;;3.00;1.90;;;;;;;16.93;46.44;99546.89;25091;1313;3026689;-64
2022/04/27 11:06:11;;;;;;;3.00;1.90;;;;;;;16.82;46.81;99547.45;25145;1316;3050806;-69
2022/04/27 11:09:24;;;;;;;4.10;1.90;;;;;;;16.92;46.54;99551.42;25157;1312;3055102;-69
2022/04/27 11:11:54;;;;;;;5.70;2.10;;;;;;;17.00;45.92;99549.81;25147;1313;3053037;-67
2022/04/27 11:14:34;;;;;;;3.60;1.70;;;;;;;17.38;45.19;99542.85;25103;1316;3057878;-67
2022/04/27 11:17:07;;;;;;;5.40;1.70;;;;;;;17.55;44.82;99543.30;25115;1313;3052574;-71
2022/04/27 11:19:40;;;;;;;4.00;1.50;;;;;;;17.81;43.98;99546.15;25147;1314;3026947;-66
2022/04/27 11:22:15;;;;;;;4.60;1.60;;;;;;;17.86;43.82;99543.42;25155;1313;3026462;-68
2022/04/27 11:24:49;;;;;;;1.90;1.40;;;;;;;18.04;43.08;99541.45;25110;1313;3068615;-69
2022/04/27 11:27:26;;;;;;;5.90;1.40;;;;;;;18.08;42.04;99544.09;25185;1313;3048391;-71
2022/04/27 11:29:55;;;;;;;2.40;1.60;;;;;;;17.98;41.31;99544.48;25132;1316;3053730;-68
2022/04/27 11:32:28;;;;;;;3.30;1.70;;;;;;;17.99;41.06;99545.78;25084;1313;3026671;-68
2022/04/27 11:34:57;;;;;;;2.40;1.60;;;;;;;17.91;41.06;99547.73;25119;1314;3026248;-67
2022/04/27 11:37:30;;;;;;;2.80;2.00;;;;;;;17.87;40.57;99550.50;25196;1315;3027568;-69
2022/04/27 11:40:16;;;;;;;7.80;1.40;;;;;;;17.91;40.33;99542.44;25166;1316;3027119;-68
2022/04/27 11:42:46;;;;;;;6.20;1.80;;;;;;;17.97;40.37;99535.84;25164;1313;3051048;-68
2022/04/27 11:45:20;;;;;;;4.80;1.50;;;;;;;17.87;41.05;99533.02;25142;1315;3026514;-70
2022/04/27 11:48:00;;;;;;;4.00;1.60;;;;;;;17.42;41.64;99535.44;25163;1316;3049113;-67
2022/04/27 11:50:33;;;;;;;3.30;1.80;;;;;;;17.31;41.47;99537.39;25147;1313;3051860;-67
2022/04/27 11:53:14;;;;;;;3.80;1.80;;;;;;;17.22;41.70;99541.73;25145;1316;3055466;-68
2022/04/27 11:55:47;;;;;;;4.50;1.80;;;;;;;17.68;41.30;99531.50;25154;1316;3059216;-66
2022/04/27 11:58:26;;;;;;;3.30;1.40;;;;;;;18.18;39.90;99532.89;25087;1316;3051594;-68
2022/04/27 12:00:59;;;;;;;7.90;1.50;;;;;;;18.28;39.54;99525.05;25162;1316;3052238;-67
2022/04/27 12:03:30;;;;;;;1.60;1.10;;;;;;;18.65;38.12;99520.02;25158;1316;3026596;-66
2022/04/27 12:05:59;;;;;;;3.60;1.40;;;;;;;18.80;36.47;99513.66;25112;1315;3026554;-67
2022/04/27 12:08:36;;;;;;;7.80;1.40;;;;;;;19.22;36.49;99510.45;25135;1315;3048761;-66
2022/04/27 12:11:06;;;;;;;2.80;1.20;;;;;;;19.25;35.02;99511.42;25091;1316;3026195;-67
2022/04/27 12:13:36;;;;;;;1.40;1.20;;;;;;;19.41;35.35;99512.85;25168;1316;3027199;-68